sensor_id;sensor_type;location;lat;lon;timestamp;pressure;altitude;pressure_sealevel;temperature;humidity
46714;BME280;32445;51.376;10.874;2023-02-20T00:01:14;100148.44;;;7.93;60.10
46714;BME280;32445;51.376;10.874;2023-02-20T00:04:15;100145.03;;;7.84;60.81
46714;BME280;32445;51.376;10.874;2023-02-20T00:07:16;100133.03;;;7.79;61.38
46714;BME280;32445;51.376;10.874;2023-02-20T00:10:17;100142.53;;;7.71;62.13
46714;BME280;32445;51.376;10.874;2023-02-20T00:13:17;100133.06;;;7.69;61.52
46714;BME280;32445;51.376;10.874;2023-02-20T00:16:21;100136.50;;;7.68;62.31
46714;BME280;32445;51.376;10.874;2023-02-20T00:19:21;100129.66;;;7.65;61.96
46714;BME280;32445;51.376;10.874;2023-02-20T00:22:22;100120.19;;;7.59;62.48
46714;BME280;32445;51.376;10.874;2023-02-20T00:25:23;100119.31;;;7.59;62.36
46714;BME280;32445;51.376;10.874;2023-02-20T00:28:23;100129.66;;;7.56;62.19
46714;BME280;32445;51.376;10.874;2023-02-20T00:31:24;100119.34;;;7.53;61.71
46714;BME280;32445;51.376;10.874;2023-02-20T00:34:27;100108.16;;;7.51;61.16
46714;BME280;32445;51.376;10.874;2023-02-20T00:37:27;100105.59;;;7.48;61.09
46714;BME280;32445;51.376;10.874;2023-02-20T00:40:28;100102.16;;;7.45;61.33
46714;BME280;32445;51.376;10.874;2023-02-20T00:43:28;100097.84;;;7.46;61.15
46714;BME280;32445;51.376;10.874;2023-02-20T00:46:31;100103.88;;;7.50;60.37
46714;BME280;32445;51.376;10.874;2023-02-20T00:49:31;100093.53;;;7.50;60.64
46714;BME280;32445;51.376;10.874;2023-02-20T00:52:31;100104.72;;;7.52;60.39
46714;BME280;32445;51.376;10.874;2023-02-20T00:55:32;100103.88;;;7.50;60.58
46714;BME280;32445;51.376;10.874;2023-02-20T00:58:32;100096.97;;;7.50;60.54
46714;BME280;32445;51.376;10.874;2023-02-20T01:01:32;100098.69;;;7.53;60.41
46714;BME280;32445;51.376;10.874;2023-02-20T01:04:33;100095.22;;;7.58;60.11
46714;BME280;32445;51.376;10.874;2023-02-20T01:07:33;100091.78;;;7.61;60.64
46714;BME280;32445;51.376;10.874;2023-02-20T01:10:33;100089.19;;;7.61;60.51
46714;BME280;32445;51.376;10.874;2023-02-20T01:13:34;100081.44;;;7.62;60.41
46714;BME280;32445;51.376;10.874;2023-02-20T01:16:34;100077.13;;;7.61;60.47
46714;BME280;32445;51.376;10.874;2023-02-20T01:19:34;100069.38;;;7.61;60.30
46714;BME280;32445;51.376;10.874;2023-02-20T01:22:35;100058.16;;;7.64;60.16
46714;BME280;32445;51.376;10.874;2023-02-20T01:25:35;100062.47;;;7.65;60.78
46714;BME280;32445;51.376;10.874;2023-02-20T01:28:35;100087.41;;;7.68;60.21
46714;BME280;32445;51.376;10.874;2023-02-20T01:31:35;100100.34;;;7.65;60.46
46714;BME280;32445;51.376;10.874;2023-02-20T01:34:36;100093.47;;;7.67;60.07
46714;BME280;32445;51.376;10.874;2023-02-20T01:37:36;100092.56;;;7.68;60.44
46714;BME280;32445;51.376;10.874;2023-02-20T01:40:37;100089.97;;;7.69;60.06
46714;BME280;32445;51.376;10.874;2023-02-20T01:43:37;100084.81;;;7.69;59.95
46714;BME280;32445;51.376;10.874;2023-02-20T01:46:45;100077.94;;;7.68;60.28
46714;BME280;32445;51.376;10.874;2023-02-20T01:49:53;100077.06;;;7.68;59.82
46714;BME280;32445;51.376;10.874;2023-02-20T01:52:58;100068.47;;;7.67;59.65
46714;BME280;32445;51.376;10.874;2023-02-20T01:56:05;100061.56;;;7.68;59.61
46714;BME280;32445;51.376;10.874;2023-02-20T01:59:07;100061.59;;;7.66;59.40
46714;BME280;32445;51.376;10.874;2023-02-20T02:02:09;100045.22;;;7.67;59.11
46714;BME280;32445;51.376;10.874;2023-02-20T02:05:10;100041.78;;;7.67;58.93
46714;BME280;32445;51.376;10.874;2023-02-20T02:08:14;100041.81;;;7.65;59.16
46714;BME280;32445;51.376;10.874;2023-02-20T02:11:21;100046.09;;;7.65;58.95
46714;BME280;32445;51.376;10.874;2023-02-20T02:14:23;100037.50;;;7.62;58.95
46714;BME280;32445;51.376;10.874;2023-02-20T02:24:22;100038.41;;;7.55;59.60
46714;BME280;32445;51.376;10.874;2023-02-20T02:38:00;100034.94;;;7.53;58.71
46714;BME280;32445;51.376;10.874;2023-02-20T02:41:23;100030.66;;;7.51;59.23
46714;BME280;32445;51.376;10.874;2023-02-20T02:44:36;100026.34;;;7.53;59.04
46714;BME280;32445;51.376;10.874;2023-02-20T02:47:56;100028.06;;;7.55;58.92
46714;BME280;32445;51.376;10.874;2023-02-20T02:51:09;100019.44;;;7.56;58.74
46714;BME280;32445;51.376;10.874;2023-02-20T02:54:15;100017.72;;;7.58;58.91
46714;BME280;32445;51.376;10.874;2023-02-20T02:57:23;100018.56;;;7.59;58.57
46714;BME280;32445;51.376;10.874;2023-02-20T03:00:40;100006.53;;;7.58;58.93
46714;BME280;32445;51.376;10.874;2023-02-20T03:03:43;100009.09;;;7.61;58.82
46714;BME280;32445;51.376;10.874;2023-02-20T03:06:45;100017.66;;;7.65;58.70
46714;BME280;32445;51.376;10.874;2023-02-20T03:09:52;100004.75;;;7.63;58.93
46714;BME280;32445;51.376;10.874;2023-02-20T03:12:53;100015.06;;;7.66;58.58
46714;BME280;32445;51.376;10.874;2023-02-20T03:15:55;100015.94;;;7.67;58.65
46714;BME280;32445;51.376;10.874;2023-02-20T03:19:00;100021.94;;;7.70;58.61
46714;BME280;32445;51.376;10.874;2023-02-20T03:22:04;100000.44;;;7.68;58.86
46714;BME280;32445;51.376;10.874;2023-02-20T03:25:14;100008.16;;;7.71;58.72
46714;BME280;32445;51.376;10.874;2023-02-20T03:28:43;100011.59;;;7.70;58.62
46714;BME280;32445;51.376;10.874;2023-02-20T03:31:55;100011.56;;;7.75;58.41
46714;BME280;32445;51.376;10.874;2023-02-20T03:35:17;100014.13;;;7.76;58.13
46714;BME280;32445;51.376;10.874;2023-02-20T03:38:40;100003.81;;;7.78;57.88
46714;BME280;32445;51.376;10.874;2023-02-20T03:42:00;100007.25;;;7.80;58.08
46714;BME280;32445;51.376;10.874;2023-02-20T03:45:23;100000.34;;;7.77;58.24
46714;BME280;32445;51.376;10.874;2023-02-20T03:48:37;99996.94;;;7.71;58.42
46714;BME280;32445;51.376;10.874;2023-02-20T03:51:39;99992.66;;;7.70;58.40
46714;BME280;32445;51.376;10.874;2023-02-20T03:54:41;100010.75;;;7.71;58.41
46714;BME280;32445;51.376;10.874;2023-02-20T03:57:44;100016.75;;;7.72;58.24
46714;BME280;32445;51.376;10.874;2023-02-20T04:00:48;100023.66;;;7.74;58.26
46714;BME280;32445;51.376;10.874;2023-02-20T04:03:51;100027.94;;;7.77;58.55
46714;BME280;32445;51.376;10.874;2023-02-20T04:06:57;100024.50;;;7.75;58.17
46714;BME280;32445;51.376;10.874;2023-02-20T04:10:01;100017.63;;;7.74;57.92
46714;BME280;32445;51.376;10.874;2023-02-20T04:13:07;100021.91;;;7.76;58.24
46714;BME280;32445;51.376;10.874;2023-02-20T04:16:08;100035.66;;;7.80;57.66
46714;BME280;32445;51.376;10.874;2023-02-20T04:19:10;100043.41;;;7.80;57.80
46714;BME280;32445;51.376;10.874;2023-02-20T04:22:16;100049.44;;;7.79;58.00
46714;BME280;32445;51.376;10.874;2023-02-20T04:28:36;100059.88;;;7.65;58.41
46714;BME280;32445;51.376;10.874;2023-02-20T04:31:37;100051.31;;;7.58;59.04
46714;BME280;32445;51.376;10.874;2023-02-20T04:34:37;100033.22;;;7.57;58.77
46714;BME280;32445;51.376;10.874;2023-02-20T04:37:38;100007.41;;;7.51;59.00
46714;BME280;32445;51.376;10.874;2023-02-20T04:40:38;99997.09;;;7.46;58.87
46714;BME280;32445;51.376;10.874;2023-02-20T04:43:38;99999.69;;;7.44;58.97
46714;BME280;32445;51.376;10.874;2023-02-20T04:46:39;100002.31;;;7.40;59.25
46714;BME280;32445;51.376;10.874;2023-02-20T04:49:39;100004.88;;;7.43;59.33
46714;BME280;32445;51.376;10.874;2023-02-20T04:52:40;100007.47;;;7.43;58.56
46714;BME280;32445;51.376;10.874;2023-02-20T04:55:40;100006.63;;;7.41;58.68
46714;BME280;32445;51.376;10.874;2023-02-20T04:58:45;100010.06;;;7.38;58.94
46714;BME280;32445;51.376;10.874;2023-02-20T05:01:46;99997.16;;;7.37;58.65
46714;BME280;32445;51.376;10.874;2023-02-20T05:04:47;99995.44;;;7.34;59.15
46714;BME280;32445;51.376;10.874;2023-02-20T05:07:48;99997.19;;;7.31;59.08
46714;BME280;32445;51.376;10.874;2023-02-20T05:10:48;100004.94;;;7.29;58.50
46714;BME280;32445;51.376;10.874;2023-02-20T05:13:49;99990.34;;;7.26;59.04
46714;BME280;32445;51.376;10.874;2023-02-20T05:16:49;99980.00;;;7.22;58.92
46714;BME280;32445;51.376;10.874;2023-02-20T05:19:52;99961.94;;;7.19;59.09
46714;BME280;32445;51.376;10.874;2023-02-20T05:22:53;99958.56;;;7.14;58.76
46714;BME280;32445;51.376;10.874;2023-02-20T05:25:53;99958.56;;;7.14;59.42
46714;BME280;32445;51.376;10.874;2023-02-20T05:28:53;99965.44;;;7.12;59.16
46714;BME280;32445;51.376;10.874;2023-02-20T05:31:54;99968.88;;;7.10;58.44
46714;BME280;32445;51.376;10.874;2023-02-20T05:34:55;99936.22;;;7.06;58.86
46714;BME280;32445;51.376;10.874;2023-02-20T05:37:55;99931.06;;;7.02;58.83
46714;BME280;32445;51.376;10.874;2023-02-20T05:40:55;99922.47;;;7.01;58.93
46714;BME280;32445;51.376;10.874;2023-02-20T05:43:56;99923.31;;;7.00;58.86
46714;BME280;32445;51.376;10.874;2023-02-20T05:46:58;99909.53;;;7.06;58.84
46714;BME280;32445;51.376;10.874;2023-02-20T05:49:58;99920.72;;;7.06;58.85
46714;BME280;32445;51.376;10.874;2023-02-20T05:52:58;99914.66;;;7.09;58.25
46714;BME280;32445;51.376;10.874;2023-02-20T05:55:59;99900.03;;;7.13;58.59
46714;BME280;32445;51.376;10.874;2023-02-20T05:59:00;99898.31;;;7.12;58.39
46714;BME280;32445;51.376;10.874;2023-02-20T06:02:00;99912.09;;;7.14;58.32
46714;BME280;32445;51.376;10.874;2023-02-20T06:05:01;99909.50;;;7.12;58.58
46714;BME280;32445;51.376;10.874;2023-02-20T06:08:01;99895.69;;;7.15;58.28
46714;BME280;32445;51.376;10.874;2023-02-20T06:11:02;99904.28;;;7.20;58.31
46714;BME280;32445;51.376;10.874;2023-02-20T06:14:03;99894.78;;;7.23;58.42
46714;BME280;32445;51.376;10.874;2023-02-20T06:17:04;99893.91;;;7.26;58.16
46714;BME280;32445;51.376;10.874;2023-02-20T06:20:05;99906.00;;;7.22;57.81
46714;BME280;32445;51.376;10.874;2023-02-20T06:23:06;99895.69;;;7.22;57.84
46714;BME280;32445;51.376;10.874;2023-02-20T06:26:06;99892.22;;;7.20;58.23
46714;BME280;32445;51.376;10.874;2023-02-20T06:29:06;99888.78;;;7.23;58.07
46714;BME280;32445;51.376;10.874;2023-02-20T06:32:07;99883.59;;;7.24;57.77
46714;BME280;32445;51.376;10.874;2023-02-20T06:35:07;99875.03;;;7.22;57.92
46714;BME280;32445;51.376;10.874;2023-02-20T06:38:08;99869.00;;;7.19;58.05
46714;BME280;32445;51.376;10.874;2023-02-20T06:41:08;99869.03;;;7.16;58.32
46714;BME280;32445;51.376;10.874;2023-02-20T06:44:09;99870.78;;;7.14;58.51
46714;BME280;32445;51.376;10.874;2023-02-20T06:47:10;99874.22;;;7.11;58.59
46714;BME280;32445;51.376;10.874;2023-02-20T06:50:10;99879.38;;;7.11;58.89
46714;BME280;32445;51.376;10.874;2023-02-20T06:53:11;99870.78;;;7.10;58.76
46714;BME280;32445;51.376;10.874;2023-02-20T06:56:15;99871.66;;;7.11;59.00
46714;BME280;32445;51.376;10.874;2023-02-20T06:59:17;99874.22;;;7.13;59.16
46714;BME280;32445;51.376;10.874;2023-02-20T07:02:18;99876.78;;;7.14;59.04
46714;BME280;32445;51.376;10.874;2023-02-20T07:05:18;99871.59;;;7.16;59.02
46714;BME280;32445;51.376;10.874;2023-02-20T07:08:18;99869.88;;;7.16;59.11
46714;BME280;32445;51.376;10.874;2023-02-20T07:11:21;99872.44;;;7.18;58.84
46714;BME280;32445;51.376;10.874;2023-02-20T07:14:22;99875.03;;;7.22;59.04
46714;BME280;32445;51.376;10.874;2023-02-20T07:17:22;99874.13;;;7.23;58.70
46714;BME280;32445;51.376;10.874;2023-02-20T07:20:23;99875.03;;;7.21;59.41
46714;BME280;32445;51.376;10.874;2023-02-20T07:23:23;99866.41;;;7.20;58.72
46714;BME280;32445;51.376;10.874;2023-02-20T07:26:26;99864.72;;;7.21;58.98
46714;BME280;32445;51.376;10.874;2023-02-20T07:29:27;99862.94;;;7.26;59.53
46714;BME280;32445;51.376;10.874;2023-02-20T07:32:27;99857.72;;;7.31;59.28
46714;BME280;32445;51.376;10.874;2023-02-20T07:35:28;99856.00;;;7.34;59.07
46714;BME280;32445;51.376;10.874;2023-02-20T07:38:28;99849.97;;;7.35;58.99
46714;BME280;32445;51.376;10.874;2023-02-20T07:41:29;99842.22;;;7.37;59.64
46714;BME280;32445;51.376;10.874;2023-02-20T07:44:34;99851.66;;;7.38;59.52
46714;BME280;32445;51.376;10.874;2023-02-20T07:47:35;99842.19;;;7.40;59.22
46714;BME280;32445;51.376;10.874;2023-02-20T07:50:35;99847.38;;;7.37;59.61
46714;BME280;32445;51.376;10.874;2023-02-20T07:53:36;99852.53;;;7.37;59.58
46714;BME280;32445;51.376;10.874;2023-02-20T07:56:36;99850.81;;;7.37;59.63
46714;BME280;32445;51.376;10.874;2023-02-20T07:59:36;99843.06;;;7.37;59.58
46714;BME280;32445;51.376;10.874;2023-02-20T08:02:37;99832.72;;;7.39;59.49
46714;BME280;32445;51.376;10.874;2023-02-20T08:05:37;99818.91;;;7.41;59.47
46714;BME280;32445;51.376;10.874;2023-02-20T08:08:37;99815.47;;;7.44;59.62
46714;BME280;32445;51.376;10.874;2023-02-20T08:11:38;99802.53;;;7.47;59.68
46714;BME280;32445;51.376;10.874;2023-02-20T08:14:38;99807.69;;;7.47;59.44
46714;BME280;32445;51.376;10.874;2023-02-20T08:17:39;99805.03;;;7.53;59.80
46714;BME280;32445;51.376;10.874;2023-02-20T08:20:40;99808.50;;;7.54;59.24
46714;BME280;32445;51.376;10.874;2023-02-20T08:23:40;99806.69;;;7.60;59.55
46714;BME280;32445;51.376;10.874;2023-02-20T08:26:45;99813.53;;;7.68;59.33
46714;BME280;32445;51.376;10.874;2023-02-20T08:29:46;99804.88;;;7.70;59.70
46714;BME280;32445;51.376;10.874;2023-02-20T08:32:47;99801.44;;;7.73;58.95
46714;BME280;32445;51.376;10.874;2023-02-20T08:35:47;99795.38;;;7.75;59.63
46714;BME280;32445;51.376;10.874;2023-02-20T08:38:50;99793.59;;;7.80;59.51
46714;BME280;32445;51.376;10.874;2023-02-20T08:41:50;99790.97;;;7.85;58.79
46714;BME280;32445;51.376;10.874;2023-02-20T08:44:51;99794.38;;;7.87;59.25
46714;BME280;32445;51.376;10.874;2023-02-20T08:47:55;99792.63;;;7.89;59.08
46714;BME280;32445;51.376;10.874;2023-02-20T08:50:58;99801.19;;;7.96;59.15
46714;BME280;32445;51.376;10.874;2023-02-20T08:53:58;99796.81;;;8.03;59.13
46714;BME280;32445;51.376;10.874;2023-02-20T08:56:59;99796.75;;;8.09;58.79
46714;BME280;32445;51.376;10.874;2023-02-20T08:59:59;99779.47;;;8.09;58.61
46714;BME280;32445;51.376;10.874;2023-02-20T09:02:59;99776.91;;;8.11;58.76
46714;BME280;32445;51.376;10.874;2023-02-20T09:06:00;99780.34;;;8.11;58.96
46714;BME280;32445;51.376;10.874;2023-02-20T09:09:00;99777.69;;;8.16;58.75
46714;BME280;32445;51.376;10.874;2023-02-20T09:12:02;99784.53;;;8.22;58.74
46714;BME280;32445;51.376;10.874;2023-02-20T09:15:02;99781.03;;;8.26;59.00
46714;BME280;32445;51.376;10.874;2023-02-20T09:18:03;99774.91;;;8.33;59.02
46714;BME280;32445;51.376;10.874;2023-02-20T09:21:12;99771.38;;;8.39;58.34
46714;BME280;32445;51.376;10.874;2023-02-20T09:24:14;99767.91;;;8.44;58.94
46714;BME280;32445;51.376;10.874;2023-02-20T09:27:14;99770.38;;;8.51;58.46
46714;BME280;32445;51.376;10.874;2023-02-20T09:30:16;99763.44;;;8.56;58.52
46714;BME280;32445;51.376;10.874;2023-02-20T09:33:18;99757.28;;;8.63;57.83
46714;BME280;32445;51.376;10.874;2023-02-20T09:36:19;99744.22;;;8.72;57.48
46714;BME280;32445;51.376;10.874;2023-02-20T09:39:19;99734.69;;;8.76;57.71
46714;BME280;32445;51.376;10.874;2023-02-20T09:45:25;99717.22;;;8.89;56.85
46714;BME280;32445;51.376;10.874;2023-02-20T09:51:42;99703.19;;;9.02;56.74
46714;BME280;32445;51.376;10.874;2023-02-20T09:54:54;99704.81;;;9.08;56.38
46714;BME280;32445;51.376;10.874;2023-02-20T09:57:58;99700.47;;;9.11;55.84
46714;BME280;32445;51.376;10.874;2023-02-20T10:01:00;99703.84;;;9.15;56.40
46714;BME280;32445;51.376;10.874;2023-02-20T10:04:14;99701.13;;;9.23;56.62
46714;BME280;32445;51.376;10.874;2023-02-20T10:07:24;99686.31;;;9.29;56.25
46714;BME280;32445;51.376;10.874;2023-02-20T10:10:32;99700.78;;;9.41;55.95
46714;BME280;32445;51.376;10.874;2023-02-20T10:13:38;99696.31;;;9.49;55.54
46714;BME280;32445;51.376;10.874;2023-02-20T10:16:42;99691.91;;;9.55;55.72
46714;BME280;32445;51.376;10.874;2023-02-20T10:19:52;99698.78;;;9.57;55.21
46714;BME280;32445;51.376;10.874;2023-02-20T10:26:40;99694.28;;;9.65;54.69
46714;BME280;32445;51.376;10.874;2023-02-20T10:29:44;99687.25;;;9.72;54.82
46714;BME280;32445;51.376;10.874;2023-02-20T10:32:47;99680.94;;;9.85;55.16
46714;BME280;32445;51.376;10.874;2023-02-20T10:36:10;99673.81;;;9.95;55.26
46714;BME280;32445;51.376;10.874;2023-02-20T10:39:17;99679.72;;;10.03;55.30
46714;BME280;32445;51.376;10.874;2023-02-20T10:42:23;99676.06;;;10.12;54.32
46714;BME280;32445;51.376;10.874;2023-02-20T10:46:09;99656.81;;;10.22;53.44
46714;BME280;32445;51.376;10.874;2023-02-20T10:53:00;99634.41;;;10.59;53.56
46714;BME280;32445;51.376;10.874;2023-02-20T11:02:36;99620.50;;;10.96;52.98
46714;BME280;32445;51.376;10.874;2023-02-20T11:05:44;99630.75;;;11.01;52.71
46714;BME280;32445;51.376;10.874;2023-02-20T11:08:45;99613.19;;;11.11;53.10
46714;BME280;32445;51.376;10.874;2023-02-20T11:11:46;99612.00;;;11.22;52.81
46714;BME280;32445;51.376;10.874;2023-02-20T11:14:49;99622.22;;;11.29;52.19
46714;BME280;32445;51.376;10.874;2023-02-20T11:17:52;99603.75;;;11.39;51.73
46714;BME280;32445;51.376;10.874;2023-02-20T11:20:53;99598.28;;;11.49;51.53
46714;BME280;32445;51.376;10.874;2023-02-20T11:23:55;99594.59;;;11.56;52.34
46714;BME280;32445;51.376;10.874;2023-02-20T11:26:59;99597.75;;;11.67;52.39
46714;BME280;32445;51.376;10.874;2023-02-20T11:30:49;99602.69;;;11.76;51.42
46714;BME280;32445;51.376;10.874;2023-02-20T11:33:25;99589.44;;;11.84;51.15
46714;BME280;32445;51.376;10.874;2023-02-20T11:36:42;99601.38;;;11.91;51.38
46714;BME280;32445;51.376;10.874;2023-02-20T11:39:46;99564.78;;;11.98;51.37
46714;BME280;32445;51.376;10.874;2023-02-20T11:42:47;99565.31;;;12.09;51.38
46714;BME280;32445;51.376;10.874;2023-02-20T11:45:49;99548.56;;;12.18;50.79
46714;BME280;32445;51.376;10.874;2023-02-20T11:52:07;99540.16;;;12.36;51.29
46714;BME280;32445;51.376;10.874;2023-02-20T11:55:18;99549.47;;;12.43;50.78
46714;BME280;32445;51.376;10.874;2023-02-20T11:58:25;99533.66;;;12.50;50.64
46714;BME280;32445;51.376;10.874;2023-02-20T12:01:31;99545.56;;;12.57;50.43
46714;BME280;32445;51.376;10.874;2023-02-20T12:04:31;99533.13;;;12.65;51.02
46714;BME280;32445;51.376;10.874;2023-02-20T12:10:44;99524.94;;;12.76;50.72
46714;BME280;32445;51.376;10.874;2023-02-20T12:13:47;99500.50;;;12.80;50.93
46714;BME280;32445;51.376;10.874;2023-02-20T12:20:08;99492.63;;;12.81;50.45
46714;BME280;32445;51.376;10.874;2023-02-20T12:26:38;99474.34;;;12.83;49.97
46714;BME280;32445;51.376;10.874;2023-02-20T12:45:02;99466.38;;;13.11;50.20
46714;BME280;32445;51.376;10.874;2023-02-20T12:48:30;99455.75;;;13.16;50.22
46714;BME280;32445;51.376;10.874;2023-02-20T12:55:19;99442.28;;;13.28;50.39
46714;BME280;32445;51.376;10.874;2023-02-20T12:59:14;99448.97;;;13.36;50.69
46714;BME280;32445;51.376;10.874;2023-02-20T13:01:49;99442.63;;;13.43;50.57
46714;BME280;32445;51.376;10.874;2023-02-20T13:04:53;99450.13;;;13.50;50.55
46714;BME280;32445;51.376;10.874;2023-02-20T13:08:05;99444.72;;;13.55;51.01
46714;BME280;32445;51.376;10.874;2023-02-20T13:11:15;99435.69;;;13.64;50.39
46714;BME280;32445;51.376;10.874;2023-02-20T13:14:52;99432.25;;;13.63;50.68
46714;BME280;32445;51.376;10.874;2023-02-20T13:21:29;99436.25;;;13.72;50.60
46714;BME280;32445;51.376;10.874;2023-02-20T13:24:35;99431.03;;;13.72;50.85
46714;BME280;32445;51.376;10.874;2023-02-20T13:27:36;99431.75;;;13.76;50.80
46714;BME280;32445;51.376;10.874;2023-02-20T13:30:38;99433.22;;;13.83;50.75
46714;BME280;32445;51.376;10.874;2023-02-20T13:33:41;99446.97;;;13.87;50.71
46714;BME280;32445;51.376;10.874;2023-02-20T13:36:44;99441.81;;;13.85;49.88
46714;BME280;32445;51.376;10.874;2023-02-20T13:39:44;99448.81;;;13.84;50.26
46714;BME280;32445;51.376;10.874;2023-02-20T13:42:45;99446.97;;;13.87;50.31
46714;BME280;32445;51.376;10.874;2023-02-20T13:45:46;99442.63;;;13.87;50.16
46714;BME280;32445;51.376;10.874;2023-02-20T13:48:49;99465.97;;;13.90;50.58
46714;BME280;32445;51.376;10.874;2023-02-20T13:51:50;99453.75;;;13.91;50.08
46714;BME280;32445;51.376;10.874;2023-02-20T13:54:51;99434.59;;;13.92;50.35
46714;BME280;32445;51.376;10.874;2023-02-20T13:57:55;99438.66;;;13.99;50.56
46714;BME280;32445;51.376;10.874;2023-02-20T14:00:56;99446.34;;;14.02;50.28
46714;BME280;32445;51.376;10.874;2023-02-20T14:04:02;99445.56;;;14.00;50.27
46714;BME280;32445;51.376;10.874;2023-02-20T14:07:02;99433.22;;;14.04;50.41
46714;BME280;32445;51.376;10.874;2023-02-20T14:10:16;99423.88;;;13.98;49.66
46714;BME280;32445;51.376;10.874;2023-02-20T14:13:19;99428.22;;;13.99;49.37
46714;BME280;32445;51.376;10.874;2023-02-20T14:16:32;99415.34;;;13.94;49.65
46714;BME280;32445;51.376;10.874;2023-02-20T14:19:38;99412.34;;;14.04;50.39
46714;BME280;32445;51.376;10.874;2023-02-20T14:22:40;99421.56;;;14.12;49.71
46714;BME280;32445;51.376;10.874;2023-02-20T14:25:41;99412.69;;;14.16;49.49
46714;BME280;32445;51.376;10.874;2023-02-20T14:28:45;99408.81;;;14.25;49.72
46714;BME280;32445;51.376;10.874;2023-02-20T14:31:49;99405.91;;;14.33;49.70
46714;BME280;32445;51.376;10.874;2023-02-20T14:35:01;99406.75;;;14.33;49.26
46714;BME280;32445;51.376;10.874;2023-02-20T14:38:12;99412.63;;;14.39;48.85
46714;BME280;32445;51.376;10.874;2023-02-20T14:41:20;99410.47;;;14.28;48.70
46714;BME280;32445;51.376;10.874;2023-02-20T14:44:22;99407.72;;;14.31;49.20
46714;BME280;32445;51.376;10.874;2023-02-20T14:47:24;99413.81;;;14.31;49.29
46714;BME280;32445;51.376;10.874;2023-02-20T14:50:25;99410.84;;;14.39;49.60
46714;BME280;32445;51.376;10.874;2023-02-20T14:53:26;99415.63;;;14.50;49.55
46714;BME280;32445;51.376;10.874;2023-02-20T14:56:27;99409.03;;;14.62;49.53
46714;BME280;32445;51.376;10.874;2023-02-20T14:59:33;99428.88;;;14.66;49.36
46714;BME280;32445;51.376;10.874;2023-02-20T15:02:34;99425.22;;;14.70;49.07
46714;BME280;32445;51.376;10.874;2023-02-20T15:05:40;99430.88;;;14.59;47.97
46714;BME280;32445;51.376;10.874;2023-02-20T15:08:41;99437.28;;;14.52;48.60
46714;BME280;32445;51.376;10.874;2023-02-20T15:11:55;99445.13;;;14.52;48.99
46714;BME280;32445;51.376;10.874;2023-02-20T15:15:01;99473.00;;;14.51;48.63
46714;BME280;32445;51.376;10.874;2023-02-20T15:18:14;99476.91;;;14.41;48.59
46714;BME280;32445;51.376;10.874;2023-02-20T15:21:37;99488.47;;;14.35;48.85
46714;BME280;32445;51.376;10.874;2023-02-20T15:24:39;99487.94;;;14.27;49.01
46714;BME280;32445;51.376;10.874;2023-02-20T15:34:17;99497.31;;;14.11;49.70
46714;BME280;32445;51.376;10.874;2023-02-20T15:37:29;99516.56;;;14.08;49.86
46714;BME280;32445;51.376;10.874;2023-02-20T15:40:32;99508.31;;;13.97;49.91
46714;BME280;32445;51.376;10.874;2023-02-20T15:43:33;99519.19;;;13.86;50.38
46714;BME280;32445;51.376;10.874;2023-02-20T15:46:33;99526.44;;;13.78;50.75
46714;BME280;32445;51.376;10.874;2023-02-20T15:49:33;99526.75;;;13.70;50.80
46714;BME280;32445;51.376;10.874;2023-02-20T15:52:34;99524.72;;;13.55;51.29
46714;BME280;32445;51.376;10.874;2023-02-20T15:55:34;99517.44;;;13.41;51.92
46714;BME280;32445;51.376;10.874;2023-02-20T15:58:37;99516.78;;;13.34;51.79
46714;BME280;32445;51.376;10.874;2023-02-20T16:01:39;99528.41;;;13.25;51.92
46714;BME280;32445;51.376;10.874;2023-02-20T16:04:39;99542.72;;;13.13;52.40
46714;BME280;32445;51.376;10.874;2023-02-20T16:07:40;99538.63;;;13.06;52.24
46714;BME280;32445;51.376;10.874;2023-02-20T16:10:40;99520.50;;;13.03;52.09
46714;BME280;32445;51.376;10.874;2023-02-20T16:13:42;99502.63;;;12.94;52.39
46714;BME280;32445;51.376;10.874;2023-02-20T16:16:46;99501.63;;;12.96;52.31
46714;BME280;32445;51.376;10.874;2023-02-20T16:19:47;99506.06;;;12.94;52.21
46714;BME280;32445;51.376;10.874;2023-02-20T16:22:47;99497.50;;;12.91;51.55
46714;BME280;32445;51.376;10.874;2023-02-20T16:25:48;99500.09;;;12.91;52.05
46714;BME280;32445;51.376;10.874;2023-02-20T16:28:58;99493.22;;;12.90;51.82
46714;BME280;32445;51.376;10.874;2023-02-20T16:34:59;99493.69;;;12.76;51.82
46714;BME280;32445;51.376;10.874;2023-02-20T16:38:00;99500.00;;;12.69;52.16
46714;BME280;32445;51.376;10.874;2023-02-20T16:41:01;99515.81;;;12.64;52.09
46714;BME280;32445;51.376;10.874;2023-02-20T16:44:29;99524.72;;;12.57;52.45
46714;BME280;32445;51.376;10.874;2023-02-20T16:47:28;99535.38;;;12.49;52.38
46714;BME280;32445;51.376;10.874;2023-02-20T16:50:30;99530.44;;;12.41;52.39
46714;BME280;32445;51.376;10.874;2023-02-20T16:53:30;99537.66;;;12.33;52.95
46714;BME280;32445;51.376;10.874;2023-02-20T16:56:31;99556.09;;;12.27;53.11
46714;BME280;32445;51.376;10.874;2023-02-20T16:59:31;99545.78;;;12.24;52.67
46714;BME280;32445;51.376;10.874;2023-02-20T17:02:32;99536.63;;;12.10;53.35
46714;BME280;32445;51.376;10.874;2023-02-20T17:05:34;99552.31;;;12.09;53.14
46714;BME280;32445;51.376;10.874;2023-02-20T17:08:34;99556.00;;;12.02;53.71
46714;BME280;32445;51.376;10.874;2023-02-20T17:11:35;99553.59;;;11.96;53.30
46714;BME280;32445;51.376;10.874;2023-02-20T17:14:35;99558.00;;;11.93;53.53
46714;BME280;32445;51.376;10.874;2023-02-20T17:17:35;99559.84;;;11.88;53.97
46714;BME280;32445;51.376;10.874;2023-02-20T17:20:36;99568.88;;;11.76;53.96
46714;BME280;32445;51.376;10.874;2023-02-20T17:23:36;99568.97;;;11.73;54.39
46714;BME280;32445;51.376;10.874;2023-02-20T17:26:37;99577.78;;;11.69;54.55
46714;BME280;32445;51.376;10.874;2023-02-20T17:29:38;99580.41;;;11.68;54.32